AirNav   Air Wisconsin pilot careers
 
 1258 users online  

6Y5 Two Hearted Airstrip
Newberry, Michigan, USA


FAA INFORMATION EFFECTIVE 08 NOVEMBER 2018

Location

FAA Identifier: 6Y5
Lat/Long: 46-41-36.0450N / 085-25-19.5450W
46-41.600750N / 085-25.325750W
46.6933458 / -85.4220958
(estimated)
Elevation: 680 ft. / 207 m (estimated)
From city: 20 miles N of NEWBERRY, MI
Time zone: UTC -5 (UTC -4 during Daylight Saving Time)
Zip code: 49768

Airport Operations

Airport use: Open to the public
Activation date: 03/2018
Control tower: no
ARTCC: MINNEAPOLIS CENTER
FSS: GREEN BAY FLIGHT SERVICE STATION
Attendance: 
Segmented circle: no

Airport Communications

CTAF: 122.9

Airport Services

Runway Information

Runway 7/25

Dimensions: 2400 x 75 ft. / 732 x 23 m
Surface: turf
RUNWAY 7  RUNWAY 25
Latitude: 46-41.498500N46-41.703000N
Longitude: 085-25.571167W085-25.080333W
Elevation: 678.0 ft.672.0 ft.
Traffic pattern: leftleft

Airport Ownership and Management from official FAA records

Ownership: Publicly-owned
Owner: STATE OF MICHIGAN
DNR P.O. BOX 452
LANSING, MI 48909
Phone 517-284-6367
Manager: JAY HOLLNAGEL
5523 COUNTY RD. 399
NEWBERRY, MI 49686
Phone 906-291-0570

Instrument Procedures

There are no published instrument procedures at 6Y5.

Some nearby airports with instrument procedures:

KERY - Luce County Airport (23 nm S)
KANJ - Sault Ste Marie Municipal Airport/Sanderson Field (45 nm E)
KCIU - Chippewa County International Airport (47 nm SE)
KISQ - Schoolcraft County Airport (53 nm SW)
83D - Mackinac County Airport (56 nm SE)
 
Loc | Ops | Rwys | IFR | FBO | Links
Com | Nav | Svcs | Stats | Notes


 
Aerial photo
No photo
 
Airport distance calculator
Flying to Two Hearted Airstrip? Find the distance to fly.

From to 6Y5

Sunrise and sunset
Times for 21-Nov-2018
 Local
(UTC-5)
 Zulu
(UTC)
Morning civil twilight07:2012:20
Sunrise07:5412:54
Sunset17:0222:02
Evening civil twilight17:3522:35

Current date and time
Zulu (UTC)  21-Nov-2018 19:17:17
Local (UTC-5)  21-Nov-2018 14:17:17
 
METAR
KERY 
24nm S 
211855Z AUTO 34009G15KT 10SM SCT028 OVC037 M10/M16 A3035 RMK AO2 T11051157
CYAM 
40nm E 
211800Z 35015G20KT 15SM DRSN VCSH SCT025 SCT140 M12/M18 A3034 RMK SC3AC1 VCSH SW - W VIS 7 CONTRAILS SLP292
CWCI 
41nm NW 
211800Z AUTO 00000KT M09/M12 RMK AO1 SLP294 T10921118 51010
KANJ 
46nm E 
211855Z AUTO 32010G21KT 10SM CLR M11/M18 A3034 RMK AO2 SLP288 T11111183
TAF
CYAM 
40nm E 
211340Z 2114/2202 01010G20KT P6SM SCT020 TEMPO 2114/2124 BKN020 BECMG 2114/2116 34012G22KT FM220000 01008KT P6SM FEW020 RMK NXT FCST BY 212000Z
NOTAMs
Click for the latest NOTAMs
NOTAMs are issued by the DoD/FAA and will open in a separate window not controlled by AirNav.

 

 
 

Would you like to see your business listed on this page?

 If your business provides an interesting product or service to pilots, flight crews, aircraft, or users of the Two Hearted Airstrip, you should consider listing it here.  To start the listing process, click on the button below
 
Add a business
 

Other Pages about Two Hearted Airstrip

Page from the Michigan Airport Directory (PDF)
 
Update a link
 
Copyright © AirNav, LLC. All rights reserved. Privacy Policy  Contact